Metar Cercanos

 

LEPA - Palma De Mallorc, Spain
Distance from station: ONO 38km
Actualización: 20/07/2018 07:00
Despejado
Despejado
 Viento del varies
Viento: varies 2 km/h
Temperatura: 20°C
Rocío: 16°C
Humedad: 78%
Barómetro: 1012 hPa
Resumen: Despejado
Visibility: greater than 10 km
2018/07/20 05:00 LEPA 200500Z VRB01KT CAVOK 20/16 Q1012 NOSIG
LEMH - Mahon/Menorca Is, Spain
Distance from station: ENE 105km
Actualización: 20/07/2018 07:00
Few Clouds
Few Clouds
 Viento del E
Viento: E 7 km/h
Temperatura: 23°C
Rocío: 21°C
Humedad: 89%
Barómetro: 1013 hPa
Clouds: Few Clouds
Visibility: 10 km
Cloud details: Few Clouds 1219 m
2018/07/20 05:00 LEMH 200500Z 08004KT 050V110 9999 FEW040 23/21 Q1013
 
LEIB - Ibiza/Es Codola, Spain
Distance from station: OSO 165km
Actualización: 20/07/2018 07:00
Muy nuboso
Muy nuboso
 Viento del varies
Viento: varies 4 km/h
Temperatura: 24°C
Rocío: 22°C
Humedad: 89%
Barómetro: 1013 hPa
Clouds: Muy nuboso
Visibility: 10 km
Cloud details: Parcialmente nuboso 366 m
Muy nuboso 549 m
2018/07/20 05:00 LEIB 200500Z VRB02KT 9999 SCT012 BKN018 24/22 Q1013 NOSIG
LEBL - Barcelona Airpor, Spain
Distance from station: NNO 225km
Actualización: 20/07/2018 07:00
Despejado
Despejado
 Viento del NNO
Viento: NNO 13 km/h
Temperatura: 21°C
Rocío: 17°C
Humedad: 78%
Barómetro: 1013 hPa
Resumen: Despejado
Visibility: greater than 10 km
2018/07/20 05:00 LEBL 200500Z 33007KT CAVOK 21/17 Q1013 NOSIG
 
LEVC - Valencia (civ/Mi, Spain
Distance from station: NO 188km
Actualización: 20/07/2018 07:00
Despejado
Despejado
 Viento del NO
Viento: NO 7 km/h
Temperatura: 22°C
Rocío: 20°C
Humedad: 88%
Barómetro: 1013 hPa
Resumen: Despejado
Visibility: greater than 10 km
2018/07/20 05:00 LEVC 200500Z 32004KT CAVOK 22/20 Q1013 NOSIG
LEGE - Gerona/Costa Bra, Spain
Distance from station: N 276km
Actualización: 20/07/2018 06:30
Despejado
Despejado
 Viento del varies
Viento: varies 2 km/h
Temperatura: 18°C
Rocío: 18°C
Humedad: 100%
Barómetro: 1013 hPa
Resumen: Despejado
Visibility: greater than 10 km
2018/07/20 04:30 LEGE 200430Z VRB01KT CAVOK 18/18 Q1013
 
LEAL - Alicante/El Alte, Spain
Distance from station: OSO 344km
Actualización: 20/07/2018 07:00
Few Clouds
Few Clouds
 Viento del NNO
Viento: NNO 7 km/h
Temperatura: 24°C
Rocío: 22°C
Humedad: 89%
Barómetro: 1013 hPa
Clouds: Few Clouds
Visibility: 10 km
Cloud details: Few Clouds 457 m
2018/07/20 05:00 LEAL 200500Z 34004KT 9999 FEW015 24/22 Q1013 NOSIG
LEAM - Almeria Airport, Spain
Distance from station: SSO 56km
Actualización: 20/07/2018 07:00
Few Clouds
Few Clouds
 Viento del varies
Viento: varies 4 km/h
Temperatura: 21°C
Rocío: 20°C
Humedad: 94%
Barómetro: 1012 hPa
Clouds: Few Clouds
Visibility: 9 km
Cloud details: Few Clouds 122 m
2018/07/20 05:00 LEAM 200500Z VRB02KT 9000 FEW004 21/20 Q1012
 
LEZG - Zaragoza (mil/Ci, Spain
Distance from station: NO 431km
Actualización: 20/07/2018 07:00
Few Clouds
Few Clouds
 Viento del ONO
Viento: ONO 22 km/h
Temperatura: 20°C
Rocío: 16°C
Humedad: 78%
Barómetro: 1015 hPa
Clouds: Few Clouds
Visibility: 10 km
Cloud details: Few Clouds 610 m
2018/07/20 05:00 LEZG 200500Z 29012KT 9999 FEW020 20/16 Q1015
LEMD - Madrid/Barajas, Spain
Distance from station: ONO 234km
Actualización: 20/07/2018 07:00
Despejado
Despejado
 Viento del N
Viento: N 6 km/h
Temperatura: 16°C
Rocío: 5°C
Humedad: 48%
Barómetro: 1015 hPa
Resumen: Despejado
Visibility: greater than 10 km
2018/07/20 05:00 LEMD 200500Z 35003KT CAVOK 16/05 Q1015 NOSIG
 
LEGR - Granada Airport, Spain
Distance from station: OSO 62km
Actualización: 20/07/2018 07:00
Few Clouds
Few Clouds
 Viento del varies
Viento: varies 2 km/h
Temperatura: 20°C
Rocío: 8°C
Humedad: 46%
Barómetro: 1017 hPa
Clouds: Few Clouds
Visibility: 10 km
Cloud details: Few Clouds 3048 m
2018/07/20 05:00 LEGR 200500Z VRB01KT 9999 FEW100 20/08 Q1017
LEMG - Malaga (civ/Mil), Spain
Distance from station: OSO 227km
Actualización: 20/07/2018 07:00
Despejado
Despejado
 Viento del SSE
Viento: SSE 7 km/h
Temperatura: 21°C
Rocío: 18°C
Humedad: 83%
Barómetro: 1013 hPa
Resumen: Despejado
Visibility: greater than 10 km
2018/07/20 05:00 LEMG 200500Z 16004KT 080V230 CAVOK 21/18 Q1013 NOSIG
 
LEZL - Sevilla (civ/Mil, Spain
Distance from station: S 318km
Actualización: 20/07/2018 07:00
Despejado
Despejado
 Viento del SE
Viento: SE 2 km/h
Temperatura: 18°C
Rocío: 14°C
Humedad: 78%
Barómetro: 1015 hPa
Resumen: Despejado
Visibility: greater than 10 km
2018/07/20 05:00 LEZL 200500Z 13001KT CAVOK 18/14 Q1015 NOSIG
LEVT - Vitoria, Spain
Distance from station: NO 226km
Actualización: 20/07/2018 06:30
Muy nuboso
Muy nuboso
 Viento del NNE
Viento: NNE 11 km/h
Temperatura: 17°C
Rocío: 14°C
Humedad: 83%
Barómetro: 1018 hPa
Clouds: Muy nuboso
Visibility: 10 km
Cloud details: Parcialmente nuboso 244 m
Muy nuboso 457 m
2018/07/20 04:30 LEVT 200430Z 02006KT 340V050 9999 SCT008 BKN015 17/14 Q1018
 
LEBB - Bilbao/Sondica, Spain
Distance from station: NNO 235km
Actualización: 20/07/2018 07:00
Lluvia, Muy nuboso
Lluvia, Muy nuboso
 Viento del varies
Viento: varies 2 km/h
Temperatura: 20°C
Rocío: 19°C
Humedad: 94%
Barómetro: 1017 hPa
Resumen: Lluvia
Clouds: Muy nuboso
Visibility: 10 km
Cloud details: Muy nuboso 427 m
Muy nuboso 610 m
2018/07/20 05:00 LEBB 200500Z VRB01KT 9999 3000SE RA BKN014 BKN020 20/19 Q1017 TEMPO 3000 RA BKN010
LESO - San Sebastian/Fu, Spain
Distance from station: N 231km
Actualización: 20/07/2018 07:00
Lluvia, Mist, Muy nuboso
Lluvia, Mist, Muy nuboso
 Viento del E
Viento: E 7 km/h
Temperatura: 20°C
Rocío: 19°C
Humedad: 94%
Barómetro: 1017 hPa
Resumen: Lluvia, Mist
Clouds: Muy nuboso
Visibility: 3 km
Cloud details: Parcialmente nuboso 152 m
Muy nuboso 427 m
Muy nuboso 671 m
2018/07/20 05:00 LESO 200500Z 10004KT 2800 RA BR SCT005 BKN014 BKN022 20/19 Q1017
 
LEVD - Valladolid(Mil/C, Spain
Distance from station: ONO 239km
Actualización: 20/07/2018 07:00
Despejado
Despejado
 Viento del NNE
Viento: NNE 6 km/h
Temperatura: 13°C
Rocío: 12°C
Humedad: 94%
Barómetro: 1018 hPa
Resumen: Despejado
Visibility: greater than 10 km
2018/07/20 05:00 LEVD 200500Z 02003KT 350V050 CAVOK 13/12 Q1018
LESA - Salamanca (civ/M, Spain
Distance from station: ONO 349km
Actualización: 20/07/2018 07:00
Mist, Few clouds
Mist, Few clouds
 Viento del ONO
Viento: ONO 2 km/h
Temperatura: 13°C
Rocío: 12°C
Humedad: 94%
Barómetro: 1017 hPa
Resumen: Mist
Clouds: Few Clouds
Visibility: 5 km
Cloud details: Few Clouds 213 m
2018/07/20 05:00 LESA 200500Z 29001KT 5000 BR FEW007 13/12 Q1017
 
LEXJ - Santander/Paraya, Spain
Distance from station: NNO 247km
Actualización: 20/07/2018 07:00
Light drizzle, Muy nuboso
Light drizzle, Muy nuboso
 Viento del SO
Viento: SO 13 km/h
Temperatura: 18°C
Rocío: 18°C
Humedad: 100%
Barómetro: 1018 hPa
Resumen: Light Drizzle
Clouds: Muy nuboso
Visibility: 9 km
Cloud details: Few Clouds 305 m
Muy nuboso 1219 m
2018/07/20 05:00 LEXJ 200500Z 23007KT 9000 -DZ FEW010 BKN040 18/18 Q1018
LEAS - Asturias/Aviles, Spain
Distance from station: NO 214km
Actualización: 20/07/2018 07:00
Lluvia débil, Muy nuboso
Lluvia débil, Muy nuboso
 Viento del varies
Viento: varies 2 km/h
Temperatura: 17°C
Rocío: 17°C
Humedad: 100%
Barómetro: 1019 hPa
Resumen: Lluvia débil
Clouds: Muy nuboso
Visibility: 3 km
Cloud details: Few Clouds 152 m
Muy nuboso 457 m
Muy nuboso 1097 m
2018/07/20 05:00 LEAS 200500Z VRB01KT 3000 -RA FEW005 BKN015 BKN036 17/17 Q1019 TEMPO 1400 DZ BKN005
 
LECO - La Coruna/Alvedr, Spain
Distance from station: ONO 222km
Actualización: 20/07/2018 07:00
Parcialmente nuboso
Parcialmente nuboso
 Viento del NNO
Viento: NNO 7 km/h
Temperatura: 17°C
Rocío: 15°C
Humedad: 88%
Barómetro: 1020 hPa
Clouds: Parcialmente nuboso
Visibility: 10 km
Cloud details: Few Clouds 762 m
Parcialmente nuboso 1372 m
2018/07/20 05:00 LECO 200500Z 34004KT 300V020 9999 FEW025 SCT045 17/15 Q1020 NOSIG
LEVX - Vigo/Peinador, Spain
Distance from station: O 214km
Actualización: 20/07/2018 07:00
Parcialmente nuboso
Parcialmente nuboso
 Viento del NE
Viento: NE 7 km/h
Temperatura: 15°C
Rocío: 14°C
Humedad: 94%
Barómetro: 1019 hPa
Clouds: Parcialmente nuboso
Visibility: 9 km
2018/07/20 05:00 LEVX 200500Z 05004KT 020V080 9000 NSC 15/14 Q1019 NOSIG